Terminal Aerodrome Forecast
Issued by NWS

Home | Current Version | Previous Version | Text Only | Print | Product List | Glossary On
Versions: 1 2 3 4 5 6 7 8 9 10 11 12 13 14 15 16 17 18 19
000
FTUS41 KGYX 281724
TAFAUG
TAF
KAUG 281724Z 2818/2918 VRB03KT P6SM OVC012
     FM281830 22006KT P6SM SCT012 BKN050
     FM290000 26003KT 6SM BR SCT100
     FM291400 26008KT P6SM BKN050=

USA.gov is the U.S. government's official web portal to all federal, state and local government web resources and services.